Nearby METAR Reports

 

EBAW - Antwerpen, Belgium
Distance from station: NW 22km
Updated: 2019-06-19 03:20
Clear
Clear
 Wind from ESE
Wind: ESE 6 km/h
Temperature: 18°C
Dew Point: 15°C
Humidity: 83%
Barometer: 1008 hPa
Summary: Clear
Visibility: greater than 10 km
2019/06/19 01:20 EBAW 190120Z AUTO 11003KT CAVOK 18/15 Q1008
EBBR - Brussel, Belgium
Distance from station: SW 24km
Updated: 2019-06-19 03:20
Clear
Clear
 Wind from SE
Wind: SE 9 km/h
Temperature: 17°C
Dew Point: 15°C
Humidity: 88%
Barometer: 1008 hPa
Summary: Clear
Visibility: greater than 10 km
2019/06/19 01:20 EBBR 190120Z 13005KT CAVOK 17/15 Q1008 NOSIG
 
EBDT - Schaffen, Belgium
Distance from station: ESE 26km
Updated: 2019-06-19 03:25
Mostly cloudy
Mostly cloudy
 Wind from SSE
Wind: SSE 6 km/h
Temperature: 18°C
Dew Point: 15°C
Humidity: 83%
Barometer: 1009 hPa
Clouds: Mostly cloudy
Visibility: 10 km
Cloud details: Mostly cloudy 5486 m
2019/06/19 01:25 EBDT 190125Z AUTO 16003KT 9999 BKN180/// 18/15 Q1009 BLU
EBBE - Beauvechain, Belgium
Distance from station: S 36km
Updated: 2019-06-19 03:25
Clear
Clear
 Wind from ESE
Wind: ESE 11 km/h
Temperature: 19°C
Dew Point: 12°C
Humidity: 64%
Barometer: 1009 hPa
Clouds: Clear
Visibility: 10 km
2019/06/19 01:25 EBBE 190125Z AUTO 12006KT 9999 NCD 19/12 Q1009 BLU
 
EHWO - Woensdrecht Rnla, Netherlands
Distance from station: NNW 50km
Updated: 2019-06-19 03:25
Clear
Clear
 Wind from E
Wind: E 7 km/h
Temperature: 18°C
Dew Point: 15°C
Humidity: 83%
Barometer: 1008 hPa
Clouds: Clear
Visibility: 10 km
2019/06/19 01:25 EHWO 190125Z AUTO 09004KT 9999 NCD 18/15 Q1008 BLU
EBBL - Kleine-Brogel, Belgium
Distance from station: ENE 54km
Updated: 2019-06-19 03:25
Few Clouds
Few Clouds
 Wind from varies
Wind: varies 2 km/h
Temperature: 16°C
Dew Point: 15°C
Humidity: 94%
Barometer: 1009 hPa
Clouds: Few Clouds
Visibility: 10 km
Cloud details: Few Clouds 5182 m
2019/06/19 01:25 EBBL 190125Z AUTO VRB01KT 9999 FEW170/// 16/15 Q1009 BLU
 
EHGR - Gilze-Rijen Rnla, Netherlands
Distance from station: NNE 57km
Updated: 2019-06-19 03:25
Overcast
Overcast
 Wind from E
Wind: E 7 km/h
Temperature: 16°C
Dew Point: 15°C
Humidity: 94%
Barometer: 1008 hPa
Clouds: Overcast
Visibility: 10 km
Cloud details: Overcast 4572 m
2019/06/19 01:25 EHGR 190125Z AUTO 08004KT 9999 OVC150 16/15 Q1008 BLU
EHEH - Eindhoven Rnlafb, Netherlands
Distance from station: NE 63km
Updated: 2019-06-19 03:25
Overcast
Overcast
 Wind from E
Wind: E 6 km/h
Temperature: 19°C
Dew Point: 16°C
Humidity: 83%
Barometer: 1009 hPa
Clouds: Overcast
Visibility: 10 km
Cloud details: Overcast 4877 m
2019/06/19 01:25 EHEH 190125Z AUTO 08003KT 030V100 9999 OVC160 19/16 Q1009 BLU
 
EBCI - Charleroi, Belgium
Distance from station: SSW 70km
Updated: 2019-06-19 03:20
Clear
Clear
 Wind from SE
Wind: SE 9 km/h
Temperature: 18°C
Dew Point: 13°C
Humidity: 73%
Barometer: 1009 hPa
Summary: Clear
Visibility: greater than 10 km
2019/06/19 01:20 EBCI 190120Z 13005KT CAVOK 18/13 Q1009 NOSIG
EBLG - Bierset, Belgium
Distance from station: SE 72km
Updated: 2019-06-19 03:20
Clear
Clear
 Wind from SE
Wind: SE 13 km/h
Temperature: 19°C
Dew Point: 13°C
Humidity: 68%
Barometer: 1009 hPa
Summary: Clear
Visibility: greater than 10 km
2019/06/19 01:20 EBLG 190120Z 13007KT CAVOK 19/13 Q1009 NOSIG